Time;durP1;ratioP1;P1;durP2;ratioP2;P2;SDS_P1;SDS_P2;PMS_P1;PMS_P2;Temp;Humidity;BMP_temperature;BMP_pressure;BME280_temperature;BME280_humidity;BME280_pressure;Samples;Min_cycle;Max_cycle;Signal;HPM_P1;HPM_P2
2023/08/18 00:03:52;;;;;;;15.45;9.25;;;;;;;25.68;100.00;100533.19;20925547;28;20053;-71
2023/08/18 00:14:16;;;;;;;15.57;9.18;;;;;;;25.52;100.00;100532.19;20903318;28;20049;-73
2023/08/18 00:24:38;;;;;;;16.15;9.10;;;;;;;25.59;100.00;100525.56;20901471;28;20045;-72
2023/08/18 00:34:52;;;;;;;17.20;9.40;;;;;;;25.51;100.00;100528.63;20899013;28;20064;-72
2023/08/18 00:44:54;;;;;;;15.05;9.00;;;;;;;25.54;100.00;100528.44;20910897;28;20437;-72
2023/08/18 00:55:19;;;;;;;15.63;9.38;;;;;;;25.57;100.00;100522.03;20934421;28;20060;-71
2023/08/18 01:05:42;;;;;;;17.08;9.73;;;;;;;25.52;100.00;100527.66;20893265;28;20055;-72
2023/08/18 01:16:11;;;;;;;18.38;10.05;;;;;;;25.59;100.00;100530.97;20886862;28;20057;-73
2023/08/18 01:26:36;;;;;;;15.68;9.48;;;;;;;25.57;100.00;100528.34;20885501;28;20417;-71
2023/08/18 01:37:00;;;;;;;15.15;9.85;;;;;;;25.52;100.00;100524.09;20912534;28;20052;-71
2023/08/18 01:47:25;;;;;;;18.17;10.38;;;;;;;25.51;100.00;100522.34;20888398;28;20059;-71
2023/08/18 01:57:48;;;;;;;18.02;10.73;;;;;;;25.43;100.00;100520.00;20885188;28;20122;-71
2023/08/18 02:08:13;;;;;;;19.60;11.15;;;;;;;25.47;100.00;100513.47;20832735;28;20060;-72
2023/08/18 02:18:35;;;;;;;17.45;10.25;;;;;;;25.42;100.00;100516.41;20785759;28;20053;-72
2023/08/18 02:29:01;;;;;;;23.67;11.00;;;;;;;25.51;100.00;100509.69;20813639;28;20061;-71
2023/08/18 02:39:22;;;;;;;20.75;10.43;;;;;;;25.48;100.00;100514.34;20764231;28;20057;-71
2023/08/18 02:49:27;;;;;;;15.88;10.20;;;;;;;25.44;100.00;100526.28;20819876;28;20118;-71
2023/08/18 02:59:50;;;;;;;20.70;11.40;;;;;;;25.43;100.00;100514.59;20805868;28;20785;-72
2023/08/18 03:10:14;;;;;;;20.25;10.77;;;;;;;25.45;100.00;100528.03;20778625;28;20088;-71
2023/08/18 03:20:36;;;;;;;19.00;9.93;;;;;;;25.47;100.00;100528.84;20786118;28;20045;-71
2023/08/18 03:31:02;;;;;;;22.33;9.43;;;;;;;25.48;100.00;100528.75;20773577;28;21087;-71
2023/08/18 03:41:26;;;;;;;19.63;9.40;;;;;;;25.47;100.00;100535.09;20773039;28;20050;-71
2023/08/18 03:51:41;;;;;;;14.75;8.50;;;;;;;25.49;100.00;100521.53;20821894;28;20052;-71
2023/08/18 04:01:50;;;;;;;22.88;8.98;;;;;;;25.52;100.00;100533.06;20802454;28;20057;-71
2023/08/18 04:12:14;;;;;;;17.10;8.65;;;;;;;25.47;100.00;100529.69;20849242;28;20045;-72
2023/08/18 04:22:37;;;;;;;14.77;8.18;;;;;;;25.51;100.00;100539.44;20903399;28;20048;-72
2023/08/18 04:33:02;;;;;;;12.43;7.40;;;;;;;25.67;100.00;100547.66;20887997;28;20424;-71
2023/08/18 04:43:24;;;;;;;11.40;6.88;;;;;;;26.30;100.00;100546.25;20926660;28;20041;-71
2023/08/18 04:53:39;;;;;;;12.20;6.53;;;;;;;27.09;100.00;100562.72;20915332;28;20052;-71
2023/08/18 05:04:01;;;;;;;13.40;5.65;;;;;;;27.86;100.00;100573.66;20881474;28;20079;-72
2023/08/18 05:14:25;;;;;;;10.35;5.07;;;;;;;28.74;100.00;100561.06;20919148;28;20222;-72
2023/08/18 05:24:49;;;;;;;11.32;4.97;;;;;;;29.50;100.00;100566.13;20891550;28;20049;-72
2023/08/18 05:35:13;;;;;;;9.70;4.30;;;;;;;30.34;100.00;100564.03;20913166;28;20051;-72
2023/08/18 05:45:36;;;;;;;13.35;4.05;;;;;;;31.32;100.00;100561.53;20894590;28;20103;-71
2023/08/18 05:56:00;;;;;;;14.07;4.85;;;;;;;31.73;100.00;100560.31;20897479;28;20188;-72
2023/08/18 06:06:23;;;;;;;7.68;3.22;;;;;;;32.76;100.00;100565.94;20843442;28;20091;-71
2023/08/18 06:16:47;;;;;;;9.88;3.78;;;;;;;33.36;100.00;100564.72;20872677;28;20068;-72
2023/08/18 06:27:09;;;;;;;11.65;4.38;;;;;;;33.74;95.44;100565.16;20901136;28;20065;-72
2023/08/18 06:37:34;;;;;;;7.55;3.42;;;;;;;34.16;82.76;100578.94;20876654;28;20059;-71
2023/08/18 06:47:57;;;;;;;11.98;3.63;;;;;;;34.50;77.50;100576.94;20888941;28;20048;-72
2023/08/18 06:58:21;;;;;;;8.88;3.70;;;;;;;34.79;71.56;100572.50;20885455;28;20048;-71
2023/08/18 07:08:43;;;;;;;11.18;3.38;;;;;;;34.77;60.12;100575.41;20880997;28;20063;-73
2023/08/18 07:19:08;;;;;;;8.30;3.42;;;;;;;35.13;58.33;100581.34;20885359;28;20520;-72
2023/08/18 07:29:33;;;;;;;11.57;3.47;;;;;;;35.64;54.09;100591.41;20906268;28;20091;-72
2023/08/18 07:39:58;;;;;;;7.72;3.53;;;;;;;35.73;50.58;100596.06;20889445;28;20099;-73
2023/08/18 07:50:21;;;;;;;12.85;3.67;;;;;;;35.86;49.75;100596.66;20901275;28;20041;-72
2023/08/18 08:00:41;;;;;;;8.45;3.55;;;;;;;36.31;46.88;100597.88;20897752;28;20136;-72
2023/08/18 08:11:03;;;;;;;7.50;3.67;;;;;;;36.62;45.91;100592.22;20902175;28;20076;-73
2023/08/18 08:21:28;;;;;;;7.85;3.50;;;;;;;36.87;44.49;100594.34;20904003;28;20068;-72
2023/08/18 08:31:50;;;;;;;7.75;3.22;;;;;;;36.94;43.01;100592.75;20886578;28;20103;-73
2023/08/18 08:42:14;;;;;;;9.60;3.60;;;;;;;37.23;42.71;100600.03;20893028;28;20044;-73
2023/08/18 08:52:39;;;;;;;7.55;3.67;;;;;;;37.31;41.99;100597.38;20882226;28;20041;-73
2023/08/18 09:02:45;;;;;;;12.02;3.55;;;;;;;37.41;41.42;100590.84;20879689;28;20041;-73
2023/08/18 09:13:07;;;;;;;8.65;4.10;;;;;;;37.83;41.48;100576.50;20866025;28;20103;-73
2023/08/18 09:23:33;;;;;;;7.00;3.50;;;;;;;37.94;41.60;100583.72;20886262;28;20059;-73
2023/08/18 09:33:55;;;;;;;7.50;3.60;;;;;;;37.92;42.32;100585.75;20877068;28;20273;-72
2023/08/18 09:44:20;;;;;;;9.10;3.78;;;;;;;38.08;42.54;100586.78;20916181;28;20056;-73
2023/08/18 09:54:47;;;;;;;9.13;3.88;;;;;;;38.04;43.14;100579.88;20878230;28;20041;-73
2023/08/18 10:05:15;;;;;;;7.80;3.35;;;;;;;38.25;42.75;100582.31;20889585;28;20041;-72
2023/08/18 10:15:39;;;;;;;7.88;3.90;;;;;;;38.32;42.98;100588.06;20878870;28;20457;-73
2023/08/18 10:26:04;;;;;;;8.43;3.53;;;;;;;38.11;44.00;100591.13;20881320;28;20079;-74
2023/08/18 10:36:29;;;;;;;10.63;5.22;;;;;;;37.76;45.35;100590.06;20853958;28;20076;-73
2023/08/18 10:46:54;;;;;;;;;;;;;;;37.57;45.50;100592.94;20883902;28;20049;-74
2023/08/18 10:57:16;;;;;;;10.17;3.73;;;;;;;37.48;45.69;100591.91;20875925;28;19920;-73
2023/08/18 11:07:32;;;;;;;9.63;4.13;;;;;;;37.43;45.39;100598.91;20886205;28;20136;-74
2023/08/18 11:17:55;;;;;;;7.70;4.25;;;;;;;37.32;45.46;100604.63;20865593;28;20693;-73
2023/08/18 11:28:20;;;;;;;13.63;4.78;;;;;;;37.15;45.70;100599.94;20896878;28;20494;-72
2023/08/18 11:38:42;;;;;;;;;;;;;;;37.08;46.98;100599.66;20861708;28;20045;-73
2023/08/18 11:49:15;;;;;;;12.77;4.78;;;;;;;37.20;47.29;100594.84;20865738;28;19920;-73
2023/08/18 11:59:21;;;;;;;10.15;4.63;;;;;;;37.11;48.51;100591.09;20866105;28;20072;-72
2023/08/18 12:09:25;;;;;;;10.57;4.22;;;;;;;37.11;47.02;100591.97;20877138;28;20437;-73
2023/08/18 12:19:48;;;;;;;9.20;3.97;;;;;;;37.29;47.56;100582.88;20844283;28;20513;-72
2023/08/18 12:29:52;;;;;;;10.20;4.43;;;;;;;37.05;47.85;100586.16;20880301;28;20052;-72
2023/08/18 12:40:14;;;;;;;9.63;4.68;;;;;;;37.04;48.08;100589.94;20877865;28;20061;-72
2023/08/18 12:50:38;;;;;;;9.57;4.78;;;;;;;36.85;48.05;100585.34;20886076;28;20490;-72
2023/08/18 13:01:00;;;;;;;11.80;4.75;;;;;;;36.42;49.53;100587.75;20804351;28;20187;-73
2023/08/18 13:11:25;;;;;;;12.93;5.53;;;;;;;36.25;51.65;100592.94;20802404;28;20099;-72
2023/08/18 13:21:47;;;;;;;9.90;4.32;;;;;;;35.98;50.90;100590.00;20871564;28;20139;-73
2023/08/18 13:32:12;;;;;;;7.82;4.82;;;;;;;35.54;52.29;100581.25;20878806;28;20049;-72
2023/08/18 13:42:35;;;;;;;10.52;5.25;;;;;;;35.30;57.57;100564.28;20887164;28;20133;-72
2023/08/18 13:53:00;;;;;;;13.68;5.07;;;;;;;35.12;61.85;100565.88;20895360;28;20049;-73
2023/08/18 14:03:22;;;;;;;10.77;4.90;;;;;;;34.97;65.11;100581.88;20892869;28;20056;-72
2023/08/18 14:13:48;;;;;;;10.68;4.88;;;;;;;34.83;66.58;100576.75;20893621;28;20061;-73
2023/08/18 14:24:10;;;;;;;12.23;5.00;;;;;;;34.76;68.21;100581.03;20843335;28;20052;-72
2023/08/18 14:34:34;;;;;;;12.98;5.28;;;;;;;34.80;69.28;100582.50;20891733;28;20414;-72
2023/08/18 14:44:57;;;;;;;13.80;4.97;;;;;;;34.86;69.15;100584.69;20876458;28;20409;-73
2023/08/18 14:55:22;;;;;;;10.07;4.47;;;;;;;34.21;73.05;100571.19;20918932;28;20048;-72
2023/08/18 15:05:44;;;;;;;11.88;4.60;;;;;;;33.62;74.39;100574.38;20876509;28;20065;-72
2023/08/18 15:16:22;;;;;;;14.90;4.90;;;;;;;33.34;74.24;100567.59;20871318;28;20075;-72
2023/08/18 15:26:44;;;;;;;;;;;;;;;32.86;74.76;100566.94;20867503;28;20053;-73
2023/08/18 15:37:09;;;;;;;15.52;5.05;;;;;;;32.54;78.85;100563.16;20881328;28;19920;-72
2023/08/18 15:47:31;;;;;;;10.48;4.85;;;;;;;32.13;86.86;100559.03;20885779;28;20052;-71
2023/08/18 15:57:58;;;;;;;12.38;4.82;;;;;;;31.86;91.85;100558.41;20876679;28;20401;-72
2023/08/18 16:08:21;;;;;;;17.43;5.37;;;;;;;31.61;93.55;100563.00;20922937;28;20122;-72
2023/08/18 16:18:45;;;;;;;14.10;5.40;;;;;;;31.45;94.69;100570.53;20879964;28;20344;-72
2023/08/18 16:29:08;;;;;;;17.00;6.47;;;;;;;31.25;96.95;100565.69;20931761;28;20045;-73
2023/08/18 16:39:32;;;;;;;16.80;6.72;;;;;;;30.99;100.00;100569.41;20905822;28;20063;-72
2023/08/18 16:49:54;;;;;;;16.45;6.50;;;;;;;30.82;100.00;100574.25;20925810;28;20049;-73
2023/08/18 17:00:19;;;;;;;16.23;7.10;;;;;;;30.59;100.00;100574.97;20912756;28;20048;-72
2023/08/18 17:10:42;;;;;;;18.25;6.75;;;;;;;30.36;100.00;100575.72;20879133;28;20491;-72
2023/08/18 17:21:06;;;;;;;15.82;7.47;;;;;;;30.18;100.00;100572.41;20885899;28;20045;-72
2023/08/18 17:31:29;;;;;;;19.45;7.60;;;;;;;30.03;100.00;100587.06;20927796;28;20592;-72
2023/08/18 17:41:53;;;;;;;15.02;8.02;;;;;;;29.89;100.00;100596.13;20896143;28;20044;-72
2023/08/18 17:52:15;;;;;;;21.15;8.23;;;;;;;29.77;100.00;100610.56;20908377;28;20057;-72
2023/08/18 18:02:39;;;;;;;18.33;8.68;;;;;;;29.67;100.00;100617.59;20909493;28;20134;-73
2023/08/18 18:13:03;;;;;;;17.58;8.88;;;;;;;29.45;100.00;100626.31;20874786;28;20045;-73
2023/08/18 18:23:27;;;;;;;20.52;10.00;;;;;;;29.37;100.00;100627.75;20856486;28;20540;-72
2023/08/18 18:33:51;;;;;;;23.90;9.40;;;;;;;29.20;100.00;100636.97;20887396;28;20047;-70
2023/08/18 18:44:16;;;;;;;21.50;9.07;;;;;;;29.05;100.00;100644.25;20865493;28;20045;-71
2023/08/18 18:54:38;;;;;;;18.92;8.70;;;;;;;28.86;100.00;100646.38;20863898;28;20455;-71
2023/08/18 19:05:02;;;;;;;16.52;8.45;;;;;;;28.73;100.00;100658.94;20898305;28;20153;-72
2023/08/18 19:15:25;;;;;;;17.92;8.25;;;;;;;28.54;100.00;100651.03;20870398;28;20486;-73
2023/08/18 19:25:51;;;;;;;17.90;8.95;;;;;;;28.48;100.00;100646.00;20877579;28;20037;-72
2023/08/18 19:36:13;;;;;;;17.63;7.47;;;;;;;28.40;100.00;100646.44;20868780;28;20390;-73
2023/08/18 19:46:38;;;;;;;19.00;8.27;;;;;;;28.19;100.00;100631.44;20908520;28;20041;-71
2023/08/18 19:57:01;;;;;;;18.30;8.73;;;;;;;28.07;100.00;100634.84;20900644;28;20161;-71
2023/08/18 20:07:27;;;;;;;19.00;8.65;;;;;;;27.92;100.00;100636.59;20897814;28;20060;-72
2023/08/18 20:17:50;;;;;;;18.50;9.05;;;;;;;27.84;100.00;100619.88;20919384;28;20147;-72
2023/08/18 20:28:14;;;;;;;17.92;8.23;;;;;;;27.70;100.00;100622.50;20887499;28;20048;-71
2023/08/18 20:38:37;;;;;;;19.52;8.75;;;;;;;27.58;100.00;100624.09;20919943;28;20049;-72
2023/08/18 20:49:01;;;;;;;13.27;7.97;;;;;;;27.48;100.00;100617.44;20927392;28;20068;-71
2023/08/18 20:59:24;;;;;;;18.45;9.32;;;;;;;27.29;100.00;100614.88;20930086;28;20037;-71
2023/08/18 21:09:50;;;;;;;13.38;8.32;;;;;;;27.25;100.00;100609.69;20883949;28;20095;-71
2023/08/18 21:20:15;;;;;;;17.73;8.35;;;;;;;27.06;100.00;100608.97;20885795;28;20099;-71
2023/08/18 21:30:40;;;;;;;16.05;8.65;;;;;;;27.01;100.00;100605.63;20872398;28;20049;-71
2023/08/18 21:41:03;;;;;;;16.55;8.88;;;;;;;26.91;100.00;100602.56;20966226;28;20052;-71
2023/08/18 21:51:28;;;;;;;20.42;8.85;;;;;;;26.72;100.00;100591.78;20938158;28;20076;-71
2023/08/18 22:01:50;;;;;;;14.75;8.95;;;;;;;26.67;100.00;100595.72;20920277;28;20052;-72
2023/08/18 22:12:14;;;;;;;19.40;8.27;;;;;;;26.40;100.00;100587.22;20895603;28;20052;-71
2023/08/18 22:22:23;;;;;;;19.95;8.80;;;;;;;26.29;100.00;100587.78;20896107;28;20091;-73
2023/08/18 22:32:47;;;;;;;20.13;8.60;;;;;;;26.32;100.00;100578.66;20891399;28;20041;-72
2023/08/18 22:43:09;;;;;;;13.60;8.45;;;;;;;26.15;100.00;100576.78;20879080;28;20063;-71
2023/08/18 22:53:36;;;;;;;17.20;8.65;;;;;;;26.07;100.00;100569.03;20879921;28;20045;-72
2023/08/18 23:03:58;;;;;;;15.55;8.55;;;;;;;26.05;100.00;100576.38;20870109;28;20147;-72
2023/08/18 23:14:23;;;;;;;15.55;9.55;;;;;;;25.84;100.00;100572.06;20878454;28;20064;-73
2023/08/18 23:24:45;;;;;;;15.55;9.25;;;;;;;25.79;100.00;100568.72;20889611;28;20064;-73
2023/08/18 23:35:09;;;;;;;17.25;9.75;;;;;;;25.62;100.00;100563.25;20882835;28;20065;-72
2023/08/18 23:45:32;;;;;;;15.98;9.00;;;;;;;25.54;100.00;100562.72;20875207;28;20048;-72
2023/08/18 23:55:56;;;;;;;17.90;9.88;;;;;;;25.61;100.00;100553.38;20858231;28;20057;-72
